createdAt,value
2018-12-23T00:01:11.188Z,5.84
2018-12-23T00:03:48.085Z,5.86
2018-12-23T00:06:26.366Z,5.93
2018-12-23T00:09:09.052Z,5.90
2018-12-23T00:11:42.716Z,5.90
2018-12-23T00:14:17.382Z,5.93
2018-12-23T00:16:50.033Z,5.94
2018-12-23T00:19:29.245Z,5.97
2018-12-23T00:22:03.056Z,5.94
2018-12-23T00:24:35.678Z,5.92
2018-12-23T00:27:08.202Z,5.94
2018-12-23T00:29:40.831Z,5.90
2018-12-23T00:32:13.397Z,5.82
2018-12-23T00:34:46.707Z,5.74
2018-12-23T00:37:19.259Z,5.74
2018-12-23T00:39:52.249Z,5.73
2018-12-23T00:42:25.480Z,5.70
2018-12-23T00:44:58.648Z,5.68
2018-12-23T00:47:31.265Z,5.71
2018-12-23T00:50:04.940Z,5.78
2018-12-23T00:52:37.490Z,5.84
2018-12-23T00:55:10.154Z,5.90
2018-12-23T00:57:42.809Z,5.95
2018-12-23T01:00:15.445Z,6.02
2018-12-23T01:02:48.320Z,6.10
2018-12-23T01:05:28.621Z,6.10
2018-12-23T01:07:55.733Z,6.14
2018-12-23T01:10:28.283Z,6.16
2018-12-23T01:13:01.975Z,6.17
2018-12-23T01:15:34.546Z,6.16
2018-12-23T01:18:07.176Z,6.11
2018-12-23T01:20:39.723Z,6.13
2018-12-23T01:23:12.349Z,6.15
2018-12-23T01:25:44.938Z,6.14
2018-12-23T01:28:17.639Z,6.17
2018-12-23T01:30:50.233Z,6.17
2018-12-23T01:33:22.893Z,6.15
2018-12-23T01:35:55.523Z,6.14
2018-12-23T01:38:28.069Z,6.14
2018-12-23T01:41:00.603Z,6.15
2018-12-23T01:43:33.292Z,6.16
2018-12-23T01:46:06.209Z,6.13
2018-12-23T01:48:38.795Z,6.10
2018-12-23T01:51:11.362Z,6.10
2018-12-23T01:53:44.029Z,6.09
2018-12-23T01:56:16.608Z,6.10
2018-12-23T01:58:49.212Z,6.10
2018-12-23T02:01:21.841Z,6.04
2018-12-23T02:03:54.422Z,6.06
2018-12-23T02:06:28.806Z,6.05
2018-12-23T02:09:01.410Z,6.05
2018-12-23T02:11:36.027Z,6.04
2018-12-23T02:14:08.588Z,6.02
2018-12-23T02:16:41.183Z,6.05
2018-12-23T02:19:13.757Z,6.04
2018-12-23T02:21:46.347Z,6.03
2018-12-23T02:24:18.954Z,6.06
2018-12-23T02:26:51.495Z,6.11
2018-12-23T02:29:24.130Z,6.15
2018-12-23T02:31:56.797Z,6.14
2018-12-23T02:34:29.348Z,6.15
2018-12-23T02:37:01.939Z,6.19
2018-12-23T02:39:35.557Z,6.16
2018-12-23T02:42:08.365Z,6.21
2018-12-23T02:44:40.873Z,6.20
2018-12-23T02:47:13.470Z,6.19
2018-12-23T02:49:46.016Z,6.19
2018-12-23T02:52:18.579Z,6.21
2018-12-23T02:54:51.151Z,6.19
2018-12-23T02:57:23.731Z,6.18
2018-12-23T02:59:56.445Z,6.19
2018-12-23T03:02:29.070Z,6.17
2018-12-23T03:05:01.720Z,6.20
2018-12-23T03:07:34.802Z,6.23
2018-12-23T03:10:07.437Z,6.20
2018-12-23T03:12:39.990Z,6.23
2018-12-23T03:15:12.506Z,6.22
2018-12-23T03:17:45.118Z,6.20
2018-12-23T03:20:17.791Z,6.24
2018-12-23T03:22:50.353Z,6.25
2018-12-23T03:25:22.973Z,6.25
2018-12-23T03:27:55.662Z,6.24
2018-12-23T03:30:28.253Z,6.26
2018-12-23T03:33:01.145Z,6.23
2018-12-23T03:35:33.789Z,6.23
2018-12-23T03:38:06.419Z,6.25
2018-12-23T03:40:38.965Z,6.28
2018-12-23T03:43:11.457Z,6.24
2018-12-23T03:45:44.055Z,6.25
2018-12-23T03:48:17.139Z,6.24
2018-12-23T03:50:49.649Z,6.30
2018-12-23T03:53:22.570Z,6.33
2018-12-23T03:55:55.092Z,6.31
2018-12-23T03:58:27.644Z,6.31
2018-12-23T04:01:00.212Z,6.31
2018-12-23T04:03:34.662Z,6.33
2018-12-23T04:06:07.681Z,6.30
2018-12-23T04:08:40.262Z,6.27
2018-12-23T04:11:14.715Z,6.23
2018-12-23T04:13:49.870Z,6.26
2018-12-23T04:16:24.082Z,6.28
2018-12-23T04:18:57.472Z,6.23
2018-12-23T04:21:29.989Z,6.20
2018-12-23T04:24:02.659Z,6.18
2018-12-23T04:26:35.779Z,6.18
2018-12-23T04:29:09.639Z,6.17
2018-12-23T04:31:42.497Z,6.14
2018-12-23T04:34:15.041Z,6.11
2018-12-23T04:36:48.707Z,6.08
2018-12-23T04:39:21.311Z,6.13
2018-12-23T04:41:53.875Z,6.11
2018-12-23T04:44:26.471Z,6.14
2018-12-23T04:46:59.178Z,6.10
2018-12-23T04:49:31.806Z,6.07
2018-12-23T04:52:04.436Z,6.11
2018-12-23T04:54:37.017Z,6.17
2018-12-23T04:57:10.113Z,6.15
2018-12-23T04:59:42.682Z,6.15
2018-12-23T05:02:15.252Z,6.13
2018-12-23T05:04:47.807Z,6.14
2018-12-23T05:07:22.547Z,6.15
2018-12-23T05:09:55.112Z,6.17
2018-12-23T05:12:27.661Z,6.17
2018-12-23T05:15:00.277Z,6.16
2018-12-23T05:17:32.903Z,6.23
2018-12-23T05:20:06.354Z,6.19
2018-12-23T05:22:38.944Z,6.20
2018-12-23T05:25:11.508Z,6.18
2018-12-23T05:27:44.903Z,6.19
2018-12-23T05:30:17.478Z,6.20
2018-12-23T05:32:50.055Z,6.19
2018-12-23T05:35:22.715Z,6.21
2018-12-23T05:37:55.207Z,6.22
2018-12-23T05:40:27.799Z,6.19
2018-12-23T05:43:00.525Z,6.27
2018-12-23T05:47:02.590Z,6.25
2018-12-23T05:49:35.147Z,6.26
2018-12-23T05:52:07.681Z,6.26
2018-12-23T05:54:40.200Z,6.26
2018-12-23T05:57:13.462Z,6.28
2018-12-23T05:59:46.033Z,6.26
2018-12-23T06:02:18.547Z,6.20
2018-12-23T06:04:51.343Z,6.25
2018-12-23T06:07:23.882Z,6.23
2018-12-23T06:09:56.406Z,6.25
2018-12-23T06:12:28.924Z,6.24
2018-12-23T06:15:01.447Z,6.19
2018-12-23T06:17:34.056Z,6.21
2018-12-23T06:20:06.744Z,6.19
2018-12-23T06:22:39.274Z,6.22
2018-12-23T06:25:11.883Z,6.24
2018-12-23T06:27:44.418Z,6.24
2018-12-23T06:30:16.982Z,6.24
2018-12-23T06:32:49.465Z,6.22
2018-12-23T06:35:22.041Z,6.24
2018-12-23T06:37:54.578Z,6.28
2018-12-23T06:40:27.807Z,6.23
2018-12-23T06:43:00.324Z,6.22
2018-12-23T06:45:33.855Z,6.26
2018-12-23T06:48:06.409Z,6.29
2018-12-23T06:50:39.006Z,6.27
2018-12-23T06:53:11.509Z,6.28
2018-12-23T06:55:44.111Z,6.33
2018-12-23T06:58:16.661Z,6.36
2018-12-23T07:00:49.210Z,6.32
2018-12-23T07:03:21.735Z,6.31
2018-12-23T07:05:54.292Z,6.34
2018-12-23T07:12:33.718Z,6.36
2018-12-23T07:15:06.866Z,6.34
2018-12-23T07:17:40.710Z,6.36
2018-12-23T07:20:14.959Z,6.32
2018-12-23T07:22:49.330Z,6.34
2018-12-23T07:25:22.750Z,6.33
2018-12-23T07:27:56.876Z,6.33
2018-12-23T07:30:30.261Z,6.34
2018-12-23T07:33:04.044Z,6.31
2018-12-23T07:35:37.795Z,6.33
2018-12-23T07:38:11.300Z,6.34
2018-12-23T07:40:45.613Z,6.35
2018-12-23T07:43:19.504Z,6.37
2018-12-23T07:45:53.825Z,6.37
2018-12-23T07:48:28.116Z,6.37
2018-12-23T07:51:02.286Z,6.36
2018-12-23T07:53:36.778Z,6.34
2018-12-23T07:56:09.769Z,6.36
2018-12-23T07:58:43.393Z,6.35
2018-12-23T08:01:16.511Z,6.34
2018-12-23T08:03:49.867Z,6.36
2018-12-23T08:06:26.654Z,6.34
2018-12-23T08:09:00.471Z,6.32
2018-12-23T08:11:35.743Z,6.29
2018-12-23T08:14:10.099Z,6.29
2018-12-23T08:16:44.095Z,6.26
2018-12-23T08:19:18.278Z,6.28
2018-12-23T08:21:52.550Z,6.30
2018-12-23T08:24:27.971Z,6.35
2018-12-23T08:27:01.849Z,6.37
2018-12-23T08:29:38.676Z,6.36
2018-12-23T08:32:12.487Z,6.40
2018-12-23T08:34:45.716Z,6.41
2018-12-23T08:37:19.595Z,6.42
2018-12-23T08:39:53.500Z,6.45
2018-12-23T08:42:27.401Z,6.42
2018-12-23T08:45:01.252Z,6.46
2018-12-23T08:47:35.620Z,6.52
2018-12-23T08:50:09.538Z,6.50
2018-12-23T08:52:42.735Z,6.48
2018-12-23T08:55:16.738Z,6.52
2018-12-23T08:57:50.407Z,6.52
2018-12-23T09:00:25.883Z,6.52
2018-12-23T09:03:00.123Z,6.52
2018-12-23T09:05:34.302Z,6.53
2018-12-23T09:08:07.730Z,6.55
2018-12-23T09:10:43.888Z,6.55
2018-12-23T09:13:17.257Z,6.57
2018-12-23T09:15:52.186Z,6.60
2018-12-23T09:18:26.399Z,6.63
2018-12-23T09:20:59.558Z,6.64
2018-12-23T09:23:33.813Z,6.66
2018-12-23T09:26:06.859Z,6.68
2018-12-23T09:28:47.931Z,6.66
2018-12-23T09:31:22.331Z,6.73
2018-12-23T09:33:55.802Z,6.83
2018-12-23T09:36:30.091Z,6.69
2018-12-23T09:39:06.135Z,6.70
2018-12-23T09:41:39.226Z,6.73
2018-12-23T09:44:13.938Z,6.73
2018-12-23T09:46:48.146Z,6.76
2018-12-23T09:49:23.263Z,6.76
2018-12-23T09:51:57.083Z,6.83
2018-12-23T09:54:30.264Z,6.75
2018-12-23T09:57:03.812Z,6.78
2018-12-23T09:59:38.009Z,6.80
2018-12-23T10:02:13.769Z,6.81
2018-12-23T10:04:47.977Z,6.80
2018-12-23T10:07:21.975Z,6.81
2018-12-23T10:09:56.363Z,6.79
2018-12-23T10:12:30.257Z,6.86
2018-12-23T10:15:06.996Z,6.82
2018-12-23T10:17:41.819Z,6.84
2018-12-23T10:20:15.609Z,6.80
2018-12-23T10:22:49.905Z,6.81
2018-12-23T10:25:23.134Z,6.85
2018-12-23T10:27:57.391Z,6.84
2018-12-23T10:30:31.377Z,6.85
2018-12-23T10:33:04.601Z,6.85
2018-12-23T10:35:38.594Z,6.87
2018-12-23T10:38:18.299Z,6.86
2018-12-23T12:59:24.873Z,6.59
2018-12-23T13:02:03.773Z,6.50
2018-12-23T13:04:42.705Z,6.48
2018-12-23T13:07:22.448Z,6.48
2018-12-23T13:10:00.541Z,6.51
2018-12-23T13:12:56.646Z,6.44
2018-12-23T13:15:37.193Z,6.35
2018-12-23T13:18:20.487Z,6.32
2018-12-23T13:20:57.729Z,6.40
2018-12-23T13:23:50.873Z,6.38
2018-12-23T13:26:49.313Z,6.32
2018-12-23T13:29:32.144Z,6.29
2018-12-23T13:32:06.049Z,6.44
2018-12-23T13:34:43.554Z,6.38
2018-12-23T13:37:17.433Z,6.31
2018-12-23T13:39:56.265Z,6.28
2018-12-23T13:42:54.167Z,6.32
2018-12-23T13:46:25.724Z,6.23
2018-12-23T13:49:26.334Z,6.31
2018-12-23T13:52:27.990Z,6.21
2018-12-23T13:55:57.204Z,6.16
2018-12-23T13:58:56.531Z,6.18
2018-12-23T14:02:10.031Z,6.15
2018-12-23T14:05:22.890Z,6.18
2018-12-23T14:08:25.775Z,6.23
2018-12-23T14:11:38.095Z,6.17
2018-12-23T14:14:11.726Z,6.06
2018-12-23T14:16:46.876Z,6.03
2018-12-23T14:19:22.015Z,5.95
2018-12-23T14:21:56.022Z,5.89
2018-12-23T14:24:40.100Z,5.84
2018-12-23T14:27:19.352Z,5.80
2018-12-23T14:29:57.401Z,5.79
2018-12-23T14:32:41.558Z,5.83
2018-12-23T14:35:18.581Z,5.78
2018-12-23T14:37:56.757Z,5.73
2018-12-23T14:40:37.846Z,5.70
2018-12-23T14:43:28.837Z,5.67
2018-12-23T14:46:10.471Z,5.62
2018-12-23T14:48:49.237Z,5.59
2018-12-23T14:51:25.193Z,5.53
2018-12-23T14:54:00.246Z,5.54
2018-12-23T14:56:40.390Z,5.49
2018-12-23T14:59:18.594Z,5.51
2018-12-23T15:01:54.125Z,5.49
2018-12-23T15:04:31.272Z,5.49
2018-12-23T15:07:05.504Z,5.44
2018-12-23T15:09:40.530Z,5.43
2018-12-23T15:12:17.774Z,5.42
2018-12-23T15:14:56.216Z,5.42
2018-12-23T15:17:32.296Z,5.43
2018-12-23T15:20:07.646Z,5.43
2018-12-23T15:22:45.500Z,5.40
2018-12-23T15:25:21.295Z,5.42
2018-12-23T15:28:23.722Z,5.34
2018-12-23T15:31:04.944Z,5.37
2018-12-23T15:33:40.804Z,5.45
2018-12-23T15:36:16.120Z,5.39
2018-12-23T15:38:53.404Z,5.35
2018-12-23T15:41:28.351Z,5.37
2018-12-23T15:44:02.866Z,5.36
2018-12-23T15:46:36.759Z,5.32
2018-12-23T15:49:10.699Z,5.30
2018-12-23T15:51:56.361Z,5.29
2018-12-23T15:54:46.225Z,5.27
2018-12-23T15:57:22.165Z,5.27
2018-12-23T15:59:59.823Z,5.25
2018-12-23T16:03:13.934Z,5.23
2018-12-23T16:05:55.230Z,5.22
2018-12-23T16:08:28.896Z,5.20
2018-12-23T16:11:02.410Z,5.19
2018-12-23T16:13:37.406Z,5.18
2018-12-23T16:16:11.137Z,5.18
2018-12-23T16:18:44.832Z,5.17
2018-12-23T16:21:18.980Z,5.16
2018-12-23T16:23:53.429Z,5.17
2018-12-23T16:26:29.188Z,5.16
2018-12-23T16:29:03.126Z,5.18
2018-12-23T16:31:40.566Z,5.21
2018-12-23T16:34:16.371Z,5.17
2018-12-23T16:36:50.396Z,5.19
2018-12-23T16:39:25.085Z,5.19
2018-12-23T16:41:59.168Z,5.16
2018-12-23T16:44:33.520Z,5.16
2018-12-23T16:47:08.299Z,5.16
2018-12-23T16:49:42.722Z,5.38
2018-12-23T16:52:16.789Z,5.26
2018-12-23T16:54:50.642Z,5.21
2018-12-23T16:57:24.490Z,5.22
2018-12-23T16:59:58.609Z,5.19
2018-12-23T17:02:32.617Z,5.16
2018-12-23T17:05:07.652Z,5.16
2018-12-23T17:07:42.099Z,5.16
2018-12-23T17:10:17.412Z,5.16
2018-12-23T17:12:52.397Z,5.13
2018-12-23T17:15:27.073Z,5.12
2018-12-23T17:18:00.151Z,5.12
2018-12-23T17:20:33.273Z,5.11
2018-12-23T17:23:07.317Z,5.15
2018-12-23T17:25:44.183Z,5.13
2018-12-23T17:28:19.182Z,5.28
2018-12-23T17:30:53.069Z,5.21
2018-12-23T17:33:26.911Z,5.20
2018-12-23T17:36:00.800Z,5.19
2018-12-23T17:38:37.004Z,5.23
2018-12-23T17:41:10.705Z,5.32
2018-12-23T17:43:48.140Z,5.22
2018-12-23T17:46:23.788Z,5.19
2018-12-23T17:48:58.230Z,5.16
2018-12-23T17:51:31.859Z,5.17
2018-12-23T17:54:07.540Z,5.17
2018-12-23T17:56:41.560Z,5.20
2018-12-23T17:59:15.736Z,5.19
2018-12-23T18:01:49.720Z,5.19
2018-12-23T18:04:23.982Z,5.20
2018-12-23T18:07:03.708Z,5.19
2018-12-23T18:09:37.007Z,5.23
2018-12-23T18:12:10.525Z,5.20
2018-12-23T18:14:47.169Z,5.22
2018-12-23T18:17:20.927Z,5.20
2018-12-23T18:19:54.883Z,5.18
2018-12-23T18:22:28.777Z,5.16
2018-12-23T18:25:03.505Z,5.17
2018-12-23T18:27:37.103Z,5.14
2018-12-23T18:30:10.090Z,5.14
2018-12-23T18:32:43.322Z,5.15
2018-12-23T18:35:17.070Z,5.12
2018-12-23T18:37:51.408Z,5.10
2018-12-23T18:40:33.162Z,5.08
2018-12-23T18:43:01.958Z,5.04
2018-12-23T18:45:38.518Z,5.08
2018-12-23T18:48:14.334Z,5.06
2018-12-23T18:50:49.105Z,5.09
2018-12-23T18:53:22.345Z,5.04
2018-12-23T18:55:56.478Z,4.98
2018-12-23T18:58:30.497Z,4.99
2018-12-23T19:01:07.227Z,4.97
2018-12-23T19:03:41.667Z,4.98
2018-12-23T19:06:19.463Z,4.99
2018-12-23T19:09:08.745Z,5.00
2018-12-23T19:12:19.304Z,4.97
2018-12-23T19:15:51.995Z,4.99
2018-12-23T19:19:21.618Z,4.96
2018-12-23T19:22:19.279Z,4.91
2018-12-23T19:25:09.879Z,4.88
2018-12-23T19:28:13.095Z,4.86
2018-12-23T19:31:29.619Z,4.87
2018-12-23T19:34:48.711Z,4.89
2018-12-23T19:38:17.948Z,4.94
2018-12-23T19:41:40.651Z,4.86
2018-12-23T19:45:06.070Z,4.86
2018-12-23T19:48:16.675Z,4.83
2018-12-23T19:51:40.409Z,4.81
2018-12-23T19:54:50.953Z,4.80
2018-12-23T19:57:46.090Z,4.81
2018-12-23T20:00:41.892Z,4.80
2018-12-23T20:04:15.248Z,4.78
2018-12-23T20:07:29.003Z,4.75
2018-12-23T20:10:47.772Z,4.74
2018-12-23T20:14:16.178Z,4.75
2018-12-23T20:17:27.088Z,4.71
2018-12-23T20:20:37.842Z,4.72
2018-12-23T20:23:48.589Z,4.80
2018-12-23T20:26:55.494Z,4.64
2018-12-23T20:30:31.750Z,4.68
2018-12-23T20:33:39.447Z,4.57
2018-12-23T20:36:52.770Z,4.52
2018-12-23T20:40:07.241Z,4.55
2018-12-23T20:43:33.390Z,4.59
2018-12-23T20:46:33.582Z,4.55
2018-12-23T20:49:30.477Z,4.42
2018-12-23T20:52:36.675Z,4.46
2018-12-23T20:55:32.244Z,4.39
2018-12-23T20:58:43.483Z,4.42
2018-12-23T21:01:54.394Z,4.51
2018-12-23T21:05:44.184Z,4.45
2018-12-23T21:08:54.971Z,4.41
2018-12-23T21:12:10.597Z,4.31
2018-12-23T21:15:21.109Z,4.29
2018-12-23T21:18:31.385Z,4.24
2018-12-23T21:21:22.851Z,4.27
2018-12-23T21:24:33.980Z,4.19
2018-12-23T21:28:04.414Z,4.22
2018-12-23T21:31:30.046Z,4.13
2018-12-23T21:34:40.191Z,4.14
2018-12-23T21:37:33.961Z,4.17
2018-12-23T21:40:45.914Z,4.04
2018-12-23T21:44:06.201Z,4.10
2018-12-23T21:47:27.790Z,4.11
2018-12-23T21:50:19.090Z,4.01
2018-12-23T21:53:34.177Z,3.96
2018-12-23T21:57:07.531Z,3.98
2018-12-23T22:00:09.413Z,3.94
2018-12-23T22:03:27.614Z,3.85
2018-12-23T22:07:04.800Z,3.75
2018-12-23T22:10:22.058Z,3.78
2018-12-23T22:13:28.041Z,3.70
2018-12-23T22:16:04.267Z,3.70
2018-12-23T22:18:37.853Z,3.77
2018-12-23T22:21:11.238Z,3.69
2018-12-23T22:23:46.484Z,3.69
2018-12-23T22:26:20.715Z,3.72
2018-12-23T22:29:06.487Z,3.89
2018-12-23T22:31:42.273Z,3.73
2018-12-23T22:34:18.425Z,3.70
2018-12-23T22:36:52.738Z,3.64
2018-12-23T22:39:28.480Z,3.71
2018-12-23T22:42:02.780Z,3.77
2018-12-23T22:44:37.041Z,3.77
2018-12-23T22:47:10.745Z,3.87
2018-12-23T22:49:44.827Z,3.87
2018-12-23T22:52:19.281Z,3.91
2018-12-23T22:54:57.134Z,3.89
2018-12-23T22:57:30.731Z,3.91
2018-12-23T23:00:09.109Z,3.86
2018-12-23T23:02:50.015Z,3.85
2018-12-23T23:05:35.007Z,3.94
2018-12-23T23:08:11.521Z,3.94
2018-12-23T23:10:49.313Z,3.88
2018-12-23T23:13:29.169Z,3.90
2018-12-23T23:16:10.827Z,3.86
2018-12-23T23:18:59.231Z,3.83
2018-12-23T23:21:40.752Z,3.84
2018-12-23T23:24:19.479Z,3.80
2018-12-23T23:27:00.153Z,3.87
2018-12-23T23:30:01.379Z,3.86
2018-12-23T23:32:51.120Z,3.97
2018-12-23T23:35:29.286Z,3.96
2018-12-23T23:38:04.471Z,3.92
2018-12-23T23:40:37.280Z,3.88
2018-12-23T23:43:20.751Z,3.93
2018-12-23T23:45:58.966Z,3.96
2018-12-23T23:48:32.443Z,4.02
2018-12-23T23:51:07.097Z,3.97
2018-12-23T23:53:40.481Z,3.96
2018-12-23T23:56:13.937Z,4.06
2018-12-23T23:58:49.325Z,4.03
